createdAt,value
2022-08-24T00:02:07.805Z,19.00
2022-08-24T00:04:57.328Z,19.00
2022-08-24T00:07:43.117Z,19.00
2022-08-24T00:10:28.274Z,18.90
2022-08-24T00:13:14.501Z,18.90
2022-08-24T00:15:59.850Z,18.90
2022-08-24T00:18:45.902Z,18.90
2022-08-24T00:21:31.837Z,18.90
2022-08-24T00:24:17.706Z,18.90
2022-08-24T00:27:03.662Z,19.00
2022-08-24T00:29:52.065Z,18.80
2022-08-24T00:32:40.353Z,18.90
2022-08-24T00:35:26.438Z,18.90
2022-08-24T00:38:11.853Z,18.90
2022-08-24T00:40:57.431Z,18.90
2022-08-24T00:43:56.188Z,18.90
2022-08-24T00:46:58.199Z,18.90
2022-08-24T00:49:54.540Z,18.90
2022-08-24T00:52:47.111Z,18.90
2022-08-24T00:55:42.030Z,18.90
2022-08-24T00:58:57.169Z,18.90
2022-08-24T01:01:44.403Z,18.90
2022-08-24T01:04:39.340Z,18.90
2022-08-24T01:07:28.057Z,18.90
2022-08-24T01:10:16.690Z,19.10
2022-08-24T01:13:05.807Z,19.00
2022-08-24T01:15:54.620Z,19.10
2022-08-24T01:18:49.769Z,19.00
2022-08-24T01:21:42.208Z,19.10
2022-08-24T01:24:27.368Z,18.90
2022-08-24T01:27:15.035Z,19.00
2022-08-24T01:30:05.377Z,19.00
2022-08-24T01:32:56.686Z,19.00
2022-08-24T01:35:42.108Z,19.00
2022-08-24T01:38:28.377Z,18.90
2022-08-24T01:41:14.233Z,19.00
2022-08-24T01:43:59.867Z,18.90
2022-08-24T01:46:50.337Z,18.90
2022-08-24T01:49:38.556Z,18.90
2022-08-24T01:52:29.731Z,18.90
2022-08-24T01:55:22.723Z,18.90
2022-08-24T01:58:08.661Z,18.90
2022-08-24T02:00:53.993Z,18.80
2022-08-24T02:03:39.840Z,18.90
2022-08-24T02:06:27.238Z,18.80
2022-08-24T02:09:13.045Z,18.90
2022-08-24T02:11:58.512Z,18.90
2022-08-24T02:14:44.275Z,18.80
2022-08-24T02:17:29.442Z,18.90
2022-08-24T02:20:16.094Z,18.90
2022-08-24T02:23:01.673Z,18.90
2022-08-24T02:25:47.811Z,18.90
2022-08-24T02:28:33.333Z,18.90
2022-08-24T02:31:18.551Z,18.90
2022-08-24T02:34:05.555Z,18.90
2022-08-24T02:36:53.724Z,18.90
2022-08-24T02:39:39.078Z,18.90
2022-08-24T02:42:24.344Z,18.90
2022-08-24T02:45:11.312Z,18.90
2022-08-24T02:47:56.435Z,18.90
2022-08-24T02:50:43.645Z,18.90
2022-08-24T02:53:29.452Z,19.00
2022-08-24T02:56:15.408Z,18.90
2022-08-24T02:59:01.071Z,18.80
2022-08-24T03:01:46.286Z,19.00
2022-08-24T03:04:31.921Z,18.90
2022-08-24T03:07:17.629Z,18.90
2022-08-24T03:10:05.511Z,18.90
2022-08-24T03:12:51.198Z,18.80
2022-08-24T03:15:36.754Z,18.80
2022-08-24T03:18:24.755Z,18.80
2022-08-24T03:21:10.767Z,18.80
2022-08-24T03:23:56.325Z,18.80
2022-08-24T03:26:44.158Z,18.80
2022-08-24T03:29:33.001Z,18.80
2022-08-24T03:32:19.648Z,18.70
2022-08-24T03:35:05.655Z,18.70
2022-08-24T03:37:51.737Z,18.70
2022-08-24T03:40:37.209Z,18.70
2022-08-24T03:43:41.176Z,18.70
2022-08-24T03:46:28.905Z,18.70
2022-08-24T03:49:14.893Z,18.70
2022-08-24T03:52:00.214Z,18.50
2022-08-24T03:54:45.966Z,18.70
2022-08-24T03:57:31.231Z,18.70
2022-08-24T04:00:17.262Z,18.80
2022-08-24T04:03:02.887Z,18.80
2022-08-24T04:05:50.150Z,19.00
2022-08-24T04:08:38.361Z,18.90
2022-08-24T04:11:27.841Z,19.00
2022-08-24T04:14:26.803Z,19.00
2022-08-24T04:17:13.119Z,19.10
2022-08-24T04:19:59.060Z,19.10
2022-08-24T04:22:44.851Z,19.10
2022-08-24T04:25:31.074Z,19.10
2022-08-24T04:28:18.773Z,19.40
2022-08-24T04:31:06.842Z,19.30
2022-08-24T04:33:54.075Z,19.30
2022-08-24T04:36:44.935Z,19.30
2022-08-24T04:39:30.648Z,19.40
2022-08-24T04:42:15.914Z,19.40
2022-08-24T04:45:01.697Z,19.40
2022-08-24T04:47:47.067Z,19.50
2022-08-24T04:50:36.470Z,19.40
2022-08-24T04:53:21.846Z,19.80
2022-08-24T04:56:13.859Z,19.50
2022-08-24T04:58:59.799Z,19.60
2022-08-24T05:01:45.286Z,19.70
2022-08-24T05:04:31.301Z,17.10
2022-08-24T05:07:18.342Z,19.80
2022-08-24T05:10:07.402Z,19.70
2022-08-24T05:12:53.991Z,19.90
2022-08-24T05:15:44.853Z,19.80
2022-08-24T05:18:31.872Z,20.00
2022-08-24T05:21:21.586Z,20.10
2022-08-24T05:24:06.965Z,20.20
2022-08-24T05:26:53.183Z,20.10
2022-08-24T05:29:38.859Z,20.20
2022-08-24T05:32:24.333Z,20.20
2022-08-24T05:35:09.781Z,20.30
2022-08-24T05:37:55.142Z,20.30
2022-08-24T05:40:41.309Z,20.40
2022-08-24T05:43:27.390Z,20.40
2022-08-24T05:46:13.551Z,20.50
2022-08-24T05:48:59.795Z,20.40
2022-08-24T05:51:45.152Z,20.30
2022-08-24T05:54:30.770Z,20.60
2022-08-24T05:57:16.482Z,20.60
2022-08-24T06:00:02.567Z,20.60
2022-08-24T06:02:48.427Z,20.60
2022-08-24T06:05:33.558Z,20.60
2022-08-24T06:08:19.214Z,20.70
2022-08-24T06:11:05.866Z,20.80
2022-08-24T06:13:56.245Z,20.90
2022-08-24T06:16:46.924Z,20.90
2022-08-24T06:19:33.649Z,21.00
2022-08-24T06:22:19.125Z,21.20
2022-08-24T06:25:23.901Z,21.20
2022-08-24T06:28:09.275Z,21.30
2022-08-24T06:31:03.372Z,21.40
2022-08-24T06:33:49.551Z,21.50
2022-08-24T06:36:35.495Z,21.60
2022-08-24T06:39:21.104Z,21.70
2022-08-24T06:42:06.715Z,21.70
2022-08-24T06:44:52.932Z,21.70
2022-08-24T06:47:38.072Z,21.50
2022-08-24T06:50:24.634Z,21.50
2022-08-24T06:53:14.418Z,21.30
2022-08-24T06:56:00.745Z,21.30
2022-08-24T06:58:46.136Z,21.30
2022-08-24T07:01:31.770Z,21.20
2022-08-24T07:04:17.207Z,21.20
2022-08-24T07:07:02.468Z,21.20
2022-08-24T07:09:48.130Z,21.20
2022-08-24T07:12:33.651Z,21.40
2022-08-24T07:15:19.496Z,21.30
2022-08-24T07:18:10.055Z,21.40
2022-08-24T07:20:56.854Z,21.50
2022-08-24T07:23:42.932Z,21.60
2022-08-24T07:26:29.908Z,21.70
2022-08-24T07:29:44.024Z,21.90
2022-08-24T07:32:21.293Z,21.90
2022-08-24T07:35:07.722Z,21.80
2022-08-24T07:37:56.452Z,22.00
2022-08-24T07:41:09.287Z,22.20
2022-08-24T07:43:54.339Z,22.20
2022-08-24T07:46:41.220Z,22.10
2022-08-24T07:49:36.893Z,22.10
2022-08-24T07:52:22.442Z,22.00
2022-08-24T07:55:09.024Z,22.20
2022-08-24T07:57:54.506Z,22.10
2022-08-24T08:00:39.940Z,22.00
2022-08-24T08:03:27.317Z,22.00
2022-08-24T08:06:16.437Z,22.10
2022-08-24T08:09:04.534Z,22.10
2022-08-24T08:11:49.846Z,22.20
2022-08-24T08:14:35.858Z,22.50
2022-08-24T08:17:21.365Z,22.60
2022-08-24T08:20:09.308Z,22.80
2022-08-24T08:23:12.778Z,22.90
2022-08-24T08:25:58.431Z,23.10
2022-08-24T08:28:44.163Z,23.40
2022-08-24T08:31:29.807Z,23.40
2022-08-24T08:34:20.095Z,23.40
2022-08-24T08:37:06.098Z,23.60
2022-08-24T08:39:51.856Z,23.70
2022-08-24T08:43:06.727Z,23.70
2022-08-24T08:46:22.615Z,23.70
2022-08-24T08:49:15.364Z,23.70
2022-08-24T08:52:24.731Z,23.90
2022-08-24T08:55:31.217Z,24.00
2022-08-24T08:58:38.113Z,24.00
2022-08-24T09:01:46.917Z,24.00
2022-08-24T09:04:47.937Z,23.30
2022-08-24T09:07:48.581Z,24.50
2022-08-24T09:10:54.860Z,24.50
2022-08-24T09:14:07.719Z,24.30
2022-08-24T09:17:22.759Z,24.20
2022-08-24T09:20:45.289Z,23.90
2022-08-24T09:23:41.964Z,23.70
2022-08-24T09:26:39.586Z,23.70
2022-08-24T09:29:27.974Z,23.80
2022-08-24T09:32:39.104Z,23.80
2022-08-24T09:36:07.927Z,23.70
2022-08-24T09:39:05.233Z,23.70
2022-08-24T09:41:53.386Z,23.60
2022-08-24T09:44:54.720Z,23.50
2022-08-24T09:47:45.680Z,23.50
2022-08-24T09:50:55.775Z,23.60
2022-08-24T09:53:41.938Z,23.70
2022-08-24T09:56:33.598Z,23.90
2022-08-24T09:59:36.915Z,24.20
2022-08-24T10:02:58.284Z,24.50
2022-08-24T10:06:07.680Z,25.00
2022-08-24T10:09:24.497Z,25.10
2022-08-24T10:12:35.714Z,25.20
2022-08-24T10:15:34.409Z,25.00
2022-08-24T10:18:35.089Z,25.10
2022-08-24T10:21:35.270Z,25.10
2022-08-24T10:24:39.524Z,25.00
2022-08-24T10:27:51.317Z,25.00
2022-08-24T10:31:09.710Z,24.90
2022-08-24T10:34:37.837Z,24.70
2022-08-24T10:38:18.184Z,24.80
2022-08-24T10:41:23.058Z,24.80
2022-08-24T10:44:46.116Z,24.90
2022-08-24T10:47:36.557Z,24.90
2022-08-24T10:50:46.787Z,24.80
2022-08-24T10:53:33.405Z,24.70
2022-08-24T10:56:50.241Z,24.60
2022-08-24T10:59:57.427Z,24.50
2022-08-24T11:02:45.464Z,24.30
2022-08-24T11:05:41.000Z,24.20
2022-08-24T11:08:28.137Z,24.30
2022-08-24T11:11:22.372Z,24.10
2022-08-24T11:14:23.503Z,24.20
2022-08-24T11:17:17.778Z,24.20
2022-08-24T11:20:04.623Z,24.20
2022-08-24T11:23:10.233Z,24.20
2022-08-24T11:25:59.301Z,24.30
2022-08-24T11:28:59.412Z,24.50
2022-08-24T11:31:50.518Z,24.60
2022-08-24T11:34:38.404Z,24.60
2022-08-24T11:37:36.799Z,24.60
2022-08-24T11:40:29.326Z,24.80
2022-08-24T11:43:42.697Z,25.00
2022-08-24T11:46:51.737Z,25.20
2022-08-24T11:49:58.864Z,25.30
2022-08-24T11:52:58.365Z,25.30
2022-08-24T11:55:57.235Z,25.30
2022-08-24T11:59:13.812Z,25.40
2022-08-24T12:02:08.642Z,25.30
2022-08-24T12:05:08.495Z,25.20
2022-08-24T12:08:03.801Z,25.30
2022-08-24T12:11:15.262Z,25.30
2022-08-24T12:14:11.337Z,25.20
2022-08-24T12:17:04.931Z,25.10
2022-08-24T12:19:55.882Z,24.90
2022-08-24T12:22:42.708Z,24.80
2022-08-24T12:25:49.718Z,24.60
2022-08-24T12:28:47.372Z,24.40
2022-08-24T12:31:38.505Z,24.30
2022-08-24T12:34:51.672Z,24.50
2022-08-24T12:37:49.904Z,24.50
2022-08-24T12:40:48.102Z,24.70
2022-08-24T12:43:40.881Z,24.70
2022-08-24T12:46:27.121Z,24.80
2022-08-24T12:49:12.667Z,24.80
2022-08-24T12:52:36.041Z,24.90
2022-08-24T12:55:43.663Z,25.00
2022-08-24T12:58:35.095Z,25.10
2022-08-24T13:01:25.627Z,25.00
2022-08-24T13:04:40.635Z,25.00
2022-08-24T13:07:30.313Z,25.20
2022-08-24T13:10:24.927Z,25.20
2022-08-24T13:13:15.231Z,25.10
2022-08-24T13:16:03.013Z,25.10
2022-08-24T13:18:53.272Z,25.10
2022-08-24T13:21:45.904Z,25.20
2022-08-24T13:24:31.653Z,25.10
2022-08-24T13:27:17.146Z,25.00
2022-08-24T13:30:17.669Z,25.10
2022-08-24T13:33:08.366Z,25.10
2022-08-24T13:36:04.894Z,25.20
2022-08-24T13:39:04.909Z,25.40
2022-08-24T13:42:12.656Z,25.50
2022-08-24T13:45:16.308Z,25.50
2022-08-24T13:48:07.999Z,25.60
2022-08-24T13:51:16.855Z,25.60
2022-08-24T13:54:22.484Z,25.50
2022-08-24T13:57:16.082Z,25.60
2022-08-24T14:00:15.183Z,26.00
2022-08-24T14:03:12.563Z,26.20
2022-08-24T14:06:23.096Z,26.30
2022-08-24T14:09:38.001Z,26.10
2022-08-24T14:12:30.107Z,25.90
2022-08-24T14:15:34.977Z,25.60
2022-08-24T14:18:44.970Z,25.40
2022-08-24T14:21:41.382Z,25.40
2022-08-24T14:24:58.716Z,25.30
2022-08-24T14:28:10.242Z,25.10
2022-08-24T14:31:21.077Z,24.90
2022-08-24T14:34:16.739Z,24.80
2022-08-24T14:37:17.039Z,24.60
2022-08-24T14:40:37.053Z,24.40
2022-08-24T14:43:30.948Z,24.20
2022-08-24T14:46:33.729Z,24.10
2022-08-24T14:49:44.560Z,23.80
2022-08-24T14:52:30.200Z,23.70
2022-08-24T14:55:30.644Z,23.60
2022-08-24T14:58:42.880Z,23.50
2022-08-24T15:01:45.164Z,23.60
2022-08-24T15:04:39.711Z,23.90
2022-08-24T15:07:27.664Z,24.10
2022-08-24T15:10:14.856Z,24.50
2022-08-24T15:13:06.048Z,24.60
2022-08-24T15:16:01.099Z,24.60
2022-08-24T15:19:15.466Z,24.50
2022-08-24T15:22:13.234Z,24.30
2022-08-24T15:25:13.802Z,24.00
2022-08-24T15:28:10.783Z,23.60
2022-08-24T15:31:07.786Z,23.30
2022-08-24T15:33:57.813Z,23.10
2022-08-24T15:36:43.574Z,23.00
2022-08-24T15:39:30.049Z,22.90
2022-08-24T15:42:16.193Z,22.80
2022-08-24T15:45:03.806Z,22.70
2022-08-24T15:47:52.068Z,22.70
2022-08-24T15:50:43.668Z,22.80
2022-08-24T15:53:39.181Z,22.90
2022-08-24T15:56:35.649Z,23.00
2022-08-24T15:59:41.413Z,22.90
2022-08-24T16:02:29.825Z,22.80
2022-08-24T16:05:25.416Z,22.90
2022-08-24T16:08:13.347Z,22.90
2022-08-24T16:11:19.808Z,22.90
2022-08-24T16:14:25.900Z,22.90
2022-08-24T16:17:28.370Z,24.90
2022-08-24T16:20:37.911Z,22.80
2022-08-24T16:23:33.405Z,22.70
2022-08-24T16:26:18.938Z,22.70
2022-08-24T16:29:04.835Z,22.70
2022-08-24T16:31:51.955Z,22.70
2022-08-24T16:34:38.473Z,22.70
2022-08-24T16:37:25.218Z,22.70
2022-08-24T16:40:11.739Z,22.60
2022-08-24T16:42:57.571Z,22.60
2022-08-24T16:45:43.323Z,22.50
2022-08-24T16:48:29.233Z,22.50
2022-08-24T16:51:14.909Z,22.40
2022-08-24T16:54:00.667Z,22.50
2022-08-24T16:56:46.909Z,22.30
2022-08-24T16:59:33.680Z,22.30
2022-08-24T17:02:20.546Z,22.20
2022-08-24T17:05:06.803Z,22.10
2022-08-24T17:07:52.369Z,22.00
2022-08-24T17:10:38.230Z,22.00
2022-08-24T17:13:49.498Z,21.90
2022-08-24T17:16:30.014Z,21.80
2022-08-24T17:19:31.216Z,21.80
2022-08-24T17:22:17.997Z,21.70
2022-08-24T17:25:05.027Z,21.20
2022-08-24T17:27:52.747Z,21.50
2022-08-24T17:30:38.481Z,21.50
2022-08-24T17:33:24.161Z,21.50
2022-08-24T17:36:15.583Z,21.70
2022-08-24T17:39:04.065Z,21.40
2022-08-24T17:41:50.543Z,21.30
2022-08-24T17:44:37.120Z,21.20
2022-08-24T17:47:22.850Z,21.30
2022-08-24T17:50:10.390Z,21.10
2022-08-24T17:52:58.922Z,21.00
2022-08-24T17:55:48.450Z,20.90
2022-08-24T17:58:54.708Z,20.80
2022-08-24T18:01:40.389Z,20.70
2022-08-24T18:04:29.743Z,21.40
2022-08-24T18:07:35.791Z,20.70
2022-08-24T18:10:29.691Z,20.60
2022-08-24T18:13:15.768Z,20.60
2022-08-24T18:16:01.550Z,20.60
2022-08-24T18:18:50.981Z,20.50
2022-08-24T18:21:36.281Z,20.70
2022-08-24T18:24:21.772Z,20.40
2022-08-24T18:27:22.062Z,20.30
2022-08-24T18:30:14.781Z,20.30
2022-08-24T18:33:01.881Z,20.30
2022-08-24T18:35:47.712Z,20.20
2022-08-24T18:38:33.774Z,20.20
2022-08-24T18:41:19.393Z,20.10
2022-08-24T18:44:06.690Z,20.10
2022-08-24T18:46:52.466Z,20.20
2022-08-24T18:49:39.042Z,20.00
2022-08-24T18:52:25.734Z,20.00
2022-08-24T18:55:11.347Z,20.40
2022-08-24T18:57:56.805Z,20.00
2022-08-24T19:00:43.148Z,20.00
2022-08-24T19:03:28.652Z,21.50
2022-08-24T19:06:14.304Z,20.70
2022-08-24T19:08:59.771Z,19.90
2022-08-24T19:11:45.289Z,21.80
2022-08-24T19:14:31.277Z,19.80
2022-08-24T19:17:17.077Z,19.80
2022-08-24T19:20:05.208Z,19.80
2022-08-24T19:22:51.367Z,17.50
2022-08-24T19:25:40.109Z,19.80
2022-08-24T19:28:26.825Z,19.80
2022-08-24T19:31:13.492Z,20.50
2022-08-24T19:34:03.381Z,19.80
2022-08-24T19:36:50.826Z,19.70
2022-08-24T19:39:36.185Z,19.10
2022-08-24T19:42:22.061Z,19.70
2022-08-24T19:45:26.985Z,19.70
2022-08-24T19:48:13.068Z,19.60
2022-08-24T19:51:01.145Z,19.60
2022-08-24T19:53:46.894Z,19.50
2022-08-24T19:56:32.958Z,19.60
2022-08-24T19:59:25.791Z,19.50
2022-08-24T20:02:11.426Z,19.50
2022-08-24T20:04:56.948Z,19.60
2022-08-24T20:07:44.481Z,19.50
2022-08-24T20:10:31.043Z,19.50
2022-08-24T20:13:16.634Z,19.50
2022-08-24T20:16:05.531Z,19.50
2022-08-24T20:18:52.969Z,19.50
2022-08-24T20:21:38.814Z,19.50
2022-08-24T20:24:24.604Z,19.40
2022-08-24T20:27:21.788Z,20.40
2022-08-24T20:30:08.355Z,19.40
2022-08-24T20:32:54.069Z,19.40
2022-08-24T20:35:40.312Z,19.50
2022-08-24T20:38:31.709Z,19.40
2022-08-24T20:41:17.514Z,19.40
2022-08-24T20:44:03.306Z,19.40
2022-08-24T20:46:49.596Z,19.30
2022-08-24T20:49:36.690Z,19.30
2022-08-24T20:52:22.420Z,19.40
2022-08-24T20:55:10.737Z,19.30
2022-08-24T20:58:03.162Z,19.30
2022-08-24T21:00:48.884Z,19.60
2022-08-24T21:03:34.813Z,19.30
2022-08-24T21:06:20.745Z,19.20
2022-08-24T21:09:06.388Z,19.30
2022-08-24T21:11:51.936Z,19.20
2022-08-24T21:14:37.437Z,19.90
2022-08-24T21:17:25.362Z,19.20
2022-08-24T21:20:13.672Z,20.20
2022-08-24T21:22:59.405Z,19.10
2022-08-24T21:25:46.592Z,19.00
2022-08-24T21:28:36.411Z,19.10
2022-08-24T21:31:22.075Z,19.10
2022-08-24T21:34:26.591Z,19.10
2022-08-24T21:37:16.393Z,19.60
2022-08-24T21:40:06.393Z,19.10
2022-08-24T21:42:52.069Z,19.10
2022-08-24T21:45:37.505Z,19.50
2022-08-24T21:48:23.126Z,19.30
2022-08-24T21:51:08.459Z,19.30
2022-08-24T21:53:59.479Z,19.10
2022-08-24T21:56:45.574Z,19.10
2022-08-24T21:59:31.383Z,19.10
2022-08-24T22:02:20.633Z,19.10
2022-08-24T22:05:06.548Z,20.40
2022-08-24T22:07:52.080Z,19.10
2022-08-24T22:10:37.715Z,19.10
2022-08-24T22:13:23.394Z,19.10
2022-08-24T22:16:09.859Z,19.10
2022-08-24T22:18:55.544Z,19.20
2022-08-24T22:21:47.735Z,20.00
2022-08-24T22:24:33.673Z,19.20
2022-08-24T22:27:18.892Z,19.30
2022-08-24T22:30:04.756Z,19.20
2022-08-24T22:32:50.440Z,19.20
2022-08-24T22:35:45.290Z,19.10
2022-08-24T22:38:30.929Z,19.20
2022-08-24T22:41:17.434Z,19.20
2022-08-24T22:44:19.058Z,19.40
2022-08-24T22:47:13.121Z,19.30
2022-08-24T22:50:00.295Z,19.30
2022-08-24T22:52:46.106Z,19.40
2022-08-24T22:55:32.636Z,19.40
2022-08-24T22:58:18.283Z,19.40
2022-08-24T23:01:03.752Z,19.40
2022-08-24T23:03:50.741Z,19.40
2022-08-24T23:06:36.180Z,21.00
2022-08-24T23:09:21.982Z,20.70
2022-08-24T23:12:09.038Z,19.50
2022-08-24T23:14:54.828Z,19.50
2022-08-24T23:17:41.781Z,19.50
2022-08-24T23:20:27.156Z,19.50
2022-08-24T23:23:12.514Z,19.60
2022-08-24T23:25:58.222Z,19.50
2022-08-24T23:28:44.339Z,18.40
2022-08-24T23:31:30.645Z,19.50
2022-08-24T23:34:16.634Z,19.80
2022-08-24T23:37:02.800Z,19.60
2022-08-24T23:39:48.143Z,19.70
2022-08-24T23:42:33.633Z,19.50
2022-08-24T23:45:19.087Z,19.50
2022-08-24T23:48:13.780Z,21.10
2022-08-24T23:51:02.866Z,21.00
2022-08-24T23:53:50.258Z,19.50
2022-08-24T23:56:38.125Z,19.50
2022-08-24T23:59:29.240Z,19.60
